Time;durP1;ratioP1;P1;durP2;ratioP2;P2;SDS_P1;SDS_P2;PMS_P1;PMS_P2;Temp;Humidity;BMP_temperature;BMP_pressure;BME280_temperature;BME280_humidity;BME280_pressure;Samples;Min_cycle;Max_cycle;Signal;HPM_P1;HPM_P2
2023/12/19 00:00:28;;;;;;;68.95;34.58;;;8.60;99.90;;;;;;5101515;28;20410;-74
2023/12/19 00:02:54;;;;;;;80.65;35.65;;;8.60;99.90;;;;;;5104096;28;20412;-74
2023/12/19 00:05:19;;;;;;;71.32;31.70;;;8.60;99.90;;;;;;5099608;28;20402;-74
2023/12/19 00:07:46;;;;;;;79.55;35.92;;;8.60;99.90;;;;;;5103605;28;20818;-74
2023/12/19 00:10:12;;;;;;;72.28;34.70;;;8.60;99.90;;;;;;5101567;28;20942;-74
2023/12/19 00:12:37;;;;;;;74.38;33.40;;;8.60;99.90;;;;;;5103890;28;20515;-74
2023/12/19 00:15:04;;;;;;;68.47;31.63;;;8.60;99.90;;;;;;5100400;28;20451;-74
2023/12/19 00:17:30;;;;;;;75.22;32.25;;;8.60;99.90;;;;;;5103654;28;20457;-74
2023/12/19 00:19:56;;;;;;;69.55;32.40;;;8.60;99.90;;;;;;5083363;28;20402;-74
2023/12/19 00:22:23;;;;;;;70.60;32.13;;;8.60;99.90;;;;;;5096447;28;20957;-74
2023/12/19 00:24:48;;;;;;;69.17;31.07;;;8.60;99.90;;;;;;5087240;28;20955;-74
2023/12/19 00:27:15;;;;;;;60.55;28.65;;;8.60;99.90;;;;;;5103226;28;20438;-74
2023/12/19 00:29:40;;;;;;;59.83;29.35;;;8.60;99.90;;;;;;5099708;28;20478;-74
2023/12/19 00:32:06;;;;;;;60.13;27.50;;;8.60;99.90;;;;;;5103392;28;20496;-74
2023/12/19 00:34:32;;;;;;;61.30;28.63;;;8.60;99.90;;;;;;5098722;28;20409;-74
2023/12/19 00:36:58;;;;;;;55.38;27.73;;;8.60;99.90;;;;;;5101810;28;20409;-74
2023/12/19 00:39:23;;;;;;;57.30;28.43;;;8.60;99.90;;;;;;5079580;28;20456;-74
2023/12/19 00:41:49;;;;;;;56.60;27.35;;;8.60;99.90;;;;;;5100383;28;20497;-74
2023/12/19 00:44:15;;;;;;;51.13;25.65;;;8.70;99.90;;;;;;5096341;28;20398;-74
2023/12/19 00:46:43;;;;;;;55.20;26.97;;;8.70;99.90;;;;;;5100162;28;20497;-74
2023/12/19 00:49:10;;;;;;;59.03;27.70;;;8.70;99.90;;;;;;5070413;28;20484;-74
2023/12/19 00:51:36;;;;;;;56.95;27.35;;;8.70;99.90;;;;;;5075228;28;20404;-73
2023/12/19 00:54:02;;;;;;;53.58;26.67;;;8.70;99.90;;;;;;5095412;28;20434;-73
2023/12/19 00:56:27;;;;;;;56.80;26.17;;;8.70;99.90;;;;;;5080226;28;20404;-74
2023/12/19 00:58:53;;;;;;;50.80;25.13;;;8.70;99.90;;;;;;5092250;28;20410;-74
2023/12/19 01:01:23;;;;;;;54.57;26.77;;;8.70;99.90;;;;;;5100852;28;20397;-73
2023/12/19 01:03:51;;;;;;;54.85;26.40;;;8.70;99.90;;;;;;5069630;28;20501;-74
2023/12/19 01:06:17;;;;;;;48.70;24.02;;;8.70;99.90;;;;;;5093264;28;20511;-74
2023/12/19 01:08:43;;;;;;;56.30;25.60;;;8.70;99.90;;;;;;5095241;28;20448;-74
2023/12/19 01:11:09;;;;;;;53.13;25.33;;;8.70;99.90;;;;;;5072270;28;20993;-74
2023/12/19 01:13:38;;;;;;;51.40;25.42;;;8.70;99.90;;;;;;5100005;28;20429;-74
2023/12/19 01:16:05;;;;;;;53.15;25.98;;;8.70;99.90;;;;;;5104940;28;20728;-74
2023/12/19 01:18:31;;;;;;;52.25;25.70;;;8.80;99.90;;;;;;5098432;28;20406;-74
2023/12/19 01:20:56;;;;;;;53.20;25.10;;;8.80;99.90;;;;;;5104542;28;20400;-74
2023/12/19 01:23:23;;;;;;;53.43;26.23;;;8.80;99.90;;;;;;5090483;28;20488;-74
2023/12/19 01:25:49;;;;;;;52.28;24.38;;;8.80;99.90;;;;;;5107651;28;20819;-74
2023/12/19 01:28:14;;;;;;;49.17;24.90;;;8.80;99.90;;;;;;5102300;28;20401;-74
2023/12/19 01:30:40;;;;;;;53.33;26.10;;;8.80;99.90;;;;;;5106576;28;20411;-74
2023/12/19 01:33:08;;;;;;;53.43;24.73;;;8.80;99.90;;;;;;5100807;28;20430;-74
2023/12/19 01:35:33;;;;;;;55.22;25.83;;;8.80;99.90;;;;;;5083834;28;20428;-74
2023/12/19 01:37:59;;;;;;;46.47;24.10;;;8.80;99.90;;;;;;5079803;28;20402;-74
2023/12/19 01:40:28;;;;;;;45.50;22.10;;;8.80;99.90;;;;;;5093898;28;20772;-74
2023/12/19 01:42:55;;;;;;;47.58;24.13;;;8.80;99.90;;;;;;5091893;28;20406;-74
2023/12/19 01:45:22;;;;;;;41.50;23.43;;;8.80;99.90;;;;;;5097494;28;20406;-74
2023/12/19 01:47:48;;;;;;;44.53;22.25;;;8.80;99.90;;;;;;5076509;28;20519;-74
2023/12/19 01:50:16;;;;;;;44.20;23.00;;;8.80;99.90;;;;;;5091314;28;20966;-74
2023/12/19 01:52:45;;;;;;;42.35;21.70;;;8.80;99.90;;;;;;5057033;28;20442;-74
2023/12/19 01:55:13;;;;;;;47.00;23.42;;;8.80;99.90;;;;;;5092972;28;20398;-75
2023/12/19 01:57:39;;;;;;;44.77;22.07;;;8.80;99.90;;;;;;5094121;28;20408;-74
2023/12/19 02:00:05;;;;;;;44.87;22.13;;;8.80;99.90;;;;;;5090730;28;20414;-74
2023/12/19 02:02:31;;;;;;;38.70;20.90;;;8.80;99.90;;;;;;5091778;28;20437;-74
2023/12/19 02:04:58;;;;;;;40.07;21.27;;;8.80;99.90;;;;;;5091055;28;20406;-74
2023/12/19 02:07:24;;;;;;;44.55;22.13;;;8.80;99.90;;;;;;5093795;28;20808;-74
2023/12/19 02:09:51;;;;;;;42.58;21.60;;;8.80;99.90;;;;;;5095134;28;20912;-74
2023/12/19 02:12:17;;;;;;;39.22;20.90;;;8.90;99.90;;;;;;5090455;28;20410;-74
2023/12/19 02:14:44;;;;;;;40.17;20.57;;;8.90;99.90;;;;;;5075343;28;20404;-74
2023/12/19 02:17:13;;;;;;;39.10;21.33;;;8.90;99.90;;;;;;5090964;28;20409;-74
2023/12/19 02:19:45;;;;;;;40.58;21.08;;;8.80;99.90;;;;;;5092073;28;20397;-74
2023/12/19 02:22:11;;;;;;;39.42;20.88;;;8.90;99.90;;;;;;5089895;28;20493;-74
2023/12/19 02:24:37;;;;;;;42.88;21.00;;;8.90;99.90;;;;;;5092107;28;20480;-74
2023/12/19 02:27:03;;;;;;;37.20;20.70;;;8.90;99.90;;;;;;5090624;28;20405;-74
2023/12/19 02:29:29;;;;;;;38.50;21.08;;;8.90;99.90;;;;;;5091187;28;20806;-74
2023/12/19 02:31:55;;;;;;;43.60;21.40;;;8.90;99.90;;;;;;5091026;28;20402;-74
2023/12/19 02:34:21;;;;;;;37.13;20.58;;;8.90;99.90;;;;;;5093087;28;20399;-74
2023/12/19 02:36:47;;;;;;;37.17;20.33;;;8.80;99.90;;;;;;5089878;28;20447;-74
2023/12/19 02:39:13;;;;;;;38.30;20.07;;;8.80;99.90;;;;;;5092560;28;21146;-74
2023/12/19 02:41:38;;;;;;;38.10;19.67;;;8.80;99.90;;;;;;5072516;28;20485;-74
2023/12/19 02:44:04;;;;;;;42.35;21.60;;;8.80;99.90;;;;;;5061869;28;20406;-74
2023/12/19 02:46:30;;;;;;;45.87;22.47;;;8.80;99.90;;;;;;5090002;28;20516;-74
2023/12/19 02:48:55;;;;;;;39.00;21.27;;;8.80;99.90;;;;;;5091046;28;20405;-74
2023/12/19 02:51:21;;;;;;;39.57;19.80;;;8.80;99.90;;;;;;5072556;28;20413;-74
2023/12/19 02:53:47;;;;;;;42.63;20.65;;;8.80;99.90;;;;;;5090460;28;20435;-74
2023/12/19 02:56:12;;;;;;;44.50;20.73;;;8.80;99.90;;;;;;5088989;28;21124;-74
2023/12/19 02:58:39;;;;;;;34.90;19.23;;;8.80;99.90;;;;;;5091287;28;20595;-74
2023/12/19 03:01:08;;;;;;;37.37;19.10;;;8.80;99.90;;;;;;5087615;28;20452;-74
2023/12/19 03:03:34;;;;;;;39.35;18.92;;;8.80;99.90;;;;;;5091438;28;20492;-74
2023/12/19 03:06:00;;;;;;;37.75;19.38;;;8.80;99.90;;;;;;5090315;28;20737;-74
2023/12/19 03:08:26;;;;;;;35.58;18.60;;;8.80;99.90;;;;;;5092726;28;20893;-74
2023/12/19 03:10:52;;;;;;;43.08;20.17;;;8.70;99.90;;;;;;5089953;28;20433;-74
2023/12/19 03:13:18;;;;;;;46.40;20.85;;;8.70;99.90;;;;;;5092040;28;20485;-74
2023/12/19 03:15:43;;;;;;;43.07;20.80;;;8.70;99.90;;;;;;5089307;28;20409;-73
2023/12/19 03:18:09;;;;;;;43.03;21.00;;;8.70;99.90;;;;;;5089196;28;20480;-73
2023/12/19 03:20:35;;;;;;;44.00;20.35;;;8.70;99.90;;;;;;5087666;28;20433;-74
2023/12/19 03:23:01;;;;;;;43.53;21.33;;;8.70;99.90;;;;;;5090202;28;20404;-73
2023/12/19 03:25:27;;;;;;;44.60;21.27;;;8.70;99.90;;;;;;5088810;28;20455;-73
2023/12/19 03:27:53;;;;;;;41.47;20.90;;;8.70;99.90;;;;;;5089700;28;20405;-73
2023/12/19 03:30:18;;;;;;;42.80;21.40;;;8.70;99.90;;;;;;5088877;28;20637;-73
2023/12/19 03:32:44;;;;;;;49.87;21.83;;;8.60;99.90;;;;;;5090092;28;20565;-73
2023/12/19 03:35:11;;;;;;;43.83;20.35;;;8.60;99.90;;;;;;5089120;28;20888;-73
2023/12/19 03:37:37;;;;;;;47.28;21.45;;;8.60;99.90;;;;;;5087675;28;20961;-72
2023/12/19 03:40:04;;;;;;;48.47;21.63;;;8.60;99.90;;;;;;5089329;28;20395;-73
2023/12/19 03:42:30;;;;;;;41.53;19.40;;;8.60;99.90;;;;;;5087537;28;20457;-73
2023/12/19 03:44:56;;;;;;;49.23;20.97;;;8.50;99.90;;;;;;5078343;28;20795;-72
2023/12/19 03:47:21;;;;;;;48.53;22.03;;;8.50;99.90;;;;;;5090478;28;20401;-73
2023/12/19 03:49:47;;;;;;;40.38;20.25;;;8.50;99.90;;;;;;5087107;28;20402;-73
2023/12/19 03:52:13;;;;;;;45.15;20.40;;;8.50;99.90;;;;;;5090352;28;20424;-72
2023/12/19 03:54:39;;;;;;;43.83;20.33;;;8.50;99.90;;;;;;5088060;28;20990;-72
2023/12/19 03:57:05;;;;;;;40.10;19.25;;;8.50;99.90;;;;;;5089252;28;20482;-72
2023/12/19 03:59:30;;;;;;;42.05;19.83;;;8.50;99.90;;;;;;5087918;28;20418;-72
2023/12/19 04:01:58;;;;;;;39.53;18.80;;;8.50;99.90;;;;;;5088190;28;20450;-72
2023/12/19 04:04:23;;;;;;;36.65;17.85;;;8.50;99.90;;;;;;5088137;28;20476;-72
2023/12/19 04:06:49;;;;;;;39.88;18.52;;;8.50;99.90;;;;;;5086953;28;20417;-72
2023/12/19 04:09:15;;;;;;;34.43;17.60;;;8.50;99.90;;;;;;5087666;28;20402;-72
2023/12/19 04:11:46;;;;;;;32.20;16.55;;;8.40;99.90;;;;;;5087536;28;20695;-73
2023/12/19 04:14:13;;;;;;;31.53;16.63;;;8.40;99.90;;;;;;5086081;28;20430;-73
2023/12/19 04:16:38;;;;;;;32.53;16.30;;;8.40;99.90;;;;;;5085930;28;20494;-73
2023/12/19 04:19:04;;;;;;;39.33;17.43;;;8.40;99.90;;;;;;5087836;28;21046;-73
2023/12/19 04:21:29;;;;;;;32.83;15.88;;;8.40;99.90;;;;;;5086184;28;20406;-73
2023/12/19 04:23:55;;;;;;;36.50;16.20;;;8.40;99.90;;;;;;5087191;28;20401;-74
2023/12/19 04:26:21;;;;;;;35.45;15.88;;;8.40;99.90;;;;;;5087013;28;20423;-73
2023/12/19 04:28:47;;;;;;;32.90;14.90;;;8.40;99.90;;;;;;5086883;28;20406;-74
2023/12/19 04:31:13;;;;;;;32.88;15.23;;;8.40;99.90;;;;;;5090373;28;20389;-73
2023/12/19 04:33:39;;;;;;;29.88;14.55;;;8.40;99.90;;;;;;5106914;28;20462;-73
2023/12/19 04:36:06;;;;;;;30.17;13.60;;;8.30;99.90;;;;;;5103142;28;20394;-73
2023/12/19 04:38:32;;;;;;;23.92;12.52;;;8.30;99.90;;;;;;5097727;28;20469;-73
2023/12/19 04:40:58;;;;;;;27.30;13.07;;;8.30;99.90;;;;;;5106709;28;20396;-73
2023/12/19 04:43:24;;;;;;;26.35;12.70;;;8.30;99.90;;;;;;5095880;28;20922;-73
2023/12/19 04:45:50;;;;;;;26.27;12.45;;;8.30;99.90;;;;;;5092553;28;20410;-73
2023/12/19 04:48:16;;;;;;;25.30;12.27;;;8.30;99.90;;;;;;5093503;28;20405;-73
2023/12/19 04:50:42;;;;;;;25.65;12.50;;;8.20;99.90;;;;;;5093155;28;20422;-73
2023/12/19 04:53:08;;;;;;;22.53;11.13;;;8.20;99.90;;;;;;5091587;28;20950;-73
2023/12/19 04:55:34;;;;;;;23.87;11.03;;;8.20;99.90;;;;;;5091687;28;20414;-73
2023/12/19 04:58:00;;;;;;;24.30;11.85;;;8.20;99.90;;;;;;5090727;28;21238;-73
2023/12/19 05:00:26;;;;;;;21.17;11.10;;;8.20;99.90;;;;;;5093731;28;20974;-73
2023/12/19 05:02:53;;;;;;;19.03;10.13;;;8.20;99.90;;;;;;5093248;28;20493;-73
2023/12/19 05:05:20;;;;;;;20.88;10.52;;;8.20;99.90;;;;;;5093100;28;20414;-73
2023/12/19 05:07:45;;;;;;;19.42;10.70;;;8.20;99.90;;;;;;5090314;28;20929;-74
2023/12/19 05:10:11;;;;;;;19.83;10.02;;;8.10;99.90;;;;;;5092192;28;20473;-73
2023/12/19 05:12:37;;;;;;;19.20;10.03;;;8.20;99.90;;;;;;5091800;28;20429;-73
2023/12/19 05:15:04;;;;;;;20.00;10.13;;;8.20;99.90;;;;;;5090434;28;20414;-73
2023/12/19 05:17:29;;;;;;;19.88;10.00;;;8.10;99.90;;;;;;5090198;28;20408;-73
2023/12/19 05:19:55;;;;;;;19.25;9.77;;;8.10;99.90;;;;;;5091990;28;20485;-73
2023/12/19 05:22:21;;;;;;;20.47;9.43;;;8.10;99.90;;;;;;5089491;28;20449;-73
2023/12/19 05:24:46;;;;;;;22.83;10.35;;;8.10;99.90;;;;;;5088348;28;20516;-73
2023/12/19 05:27:12;;;;;;;19.65;9.55;;;8.10;99.90;;;;;;5105893;28;20551;-73
2023/12/19 05:29:38;;;;;;;19.00;9.15;;;8.10;99.90;;;;;;5089701;28;20737;-74
2023/12/19 05:32:07;;;;;;;17.47;9.70;;;8.10;99.90;;;;;;5090044;28;20410;-73
2023/12/19 05:34:32;;;;;;;20.30;9.77;;;8.10;99.90;;;;;;5089334;28;20999;-73
2023/12/19 05:36:58;;;;;;;19.30;9.30;;;8.10;99.90;;;;;;5089463;28;20485;-73
2023/12/19 05:39:24;;;;;;;16.90;9.17;;;8.10;99.90;;;;;;5089847;28;20413;-73
2023/12/19 05:41:51;;;;;;;18.30;9.50;;;8.10;99.90;;;;;;5090963;28;20406;-73
2023/12/19 05:44:17;;;;;;;17.20;9.07;;;8.10;99.90;;;;;;5089423;28;20484;-73
2023/12/19 05:46:43;;;;;;;17.63;8.82;;;8.20;99.90;;;;;;5091351;28;20920;-74
2023/12/19 05:49:09;;;;;;;16.48;8.30;;;8.10;99.90;;;;;;5093349;28;20409;-73
2023/12/19 05:51:39;;;;;;;19.15;9.23;;;8.10;99.90;;;;;;5090716;28;20513;-73
2023/12/19 05:54:05;;;;;;;17.52;8.85;;;8.10;99.90;;;;;;5092181;28;20444;-73
2023/12/19 05:56:30;;;;;;;17.83;8.50;;;8.10;99.90;;;;;;5091739;28;20450;-73
2023/12/19 05:58:56;;;;;;;15.53;8.17;;;8.10;99.90;;;;;;5090023;28;20982;-74
2023/12/19 06:01:22;;;;;;;17.03;8.50;;;8.10;99.90;;;;;;5090220;28;20424;-73
2023/12/19 06:03:47;;;;;;;15.30;7.97;;;8.10;99.90;;;;;;5091308;28;20826;-73
2023/12/19 06:06:15;;;;;;;14.98;8.02;;;8.10;99.90;;;;;;5072876;28;20479;-73
2023/12/19 06:08:44;;;;;;;14.82;7.22;;;8.10;99.90;;;;;;5090297;28;20402;-74
2023/12/19 06:11:10;;;;;;;15.07;7.80;;;8.10;99.90;;;;;;5090213;28;20409;-73
2023/12/19 06:13:36;;;;;;;15.02;8.02;;;8.10;99.90;;;;;;5089173;28;20982;-73
2023/12/19 06:16:03;;;;;;;13.90;7.05;;;8.10;99.90;;;;;;5089052;28;20762;-74
2023/12/19 06:18:29;;;;;;;16.08;7.65;;;8.10;99.90;;;;;;5089588;28;20791;-73
2023/12/19 06:20:54;;;;;;;15.50;7.70;;;8.10;99.90;;;;;;5088666;28;20414;-73
2023/12/19 06:23:20;;;;;;;14.52;7.47;;;8.10;99.90;;;;;;5089082;28;20408;-73
2023/12/19 06:25:45;;;;;;;13.95;7.20;;;8.10;99.90;;;;;;5088782;28;20477;-73
2023/12/19 06:28:13;;;;;;;13.33;6.90;;;8.10;99.90;;;;;;5090388;28;20402;-74
2023/12/19 06:30:39;;;;;;;13.02;6.95;;;8.10;99.90;;;;;;5089957;28;20390;-73
2023/12/19 06:33:04;;;;;;;13.83;7.10;;;8.10;99.90;;;;;;5087876;28;20436;-73
2023/12/19 06:35:31;;;;;;;13.02;6.80;;;8.10;99.90;;;;;;5101430;28;20728;-73
2023/12/19 06:37:56;;;;;;;12.80;7.00;;;8.10;99.90;;;;;;5108068;28;20480;-73
2023/12/19 06:40:23;;;;;;;13.93;7.20;;;8.10;99.90;;;;;;5109457;28;20821;-71
2023/12/19 06:42:49;;;;;;;12.15;6.50;;;8.10;99.90;;;;;;5090093;28;20391;-70
2023/12/19 06:45:15;;;;;;;12.90;6.60;;;8.10;99.90;;;;;;5086837;28;20426;-72
2023/12/19 06:47:40;;;;;;;12.50;6.70;;;8.10;99.90;;;;;;5086759;28;20974;-71
2023/12/19 06:50:07;;;;;;;11.95;6.40;;;8.10;99.90;;;;;;5089844;28;20497;-72
2023/12/19 06:52:33;;;;;;;13.00;6.75;;;8.10;99.90;;;;;;5087551;28;20441;-72
2023/12/19 06:55:00;;;;;;;14.07;7.33;;;8.10;99.90;;;;;;5089834;28;20981;-72
2023/12/19 06:57:27;;;;;;;15.85;7.40;;;8.10;99.90;;;;;;5087755;28;20414;-72
2023/12/19 06:59:52;;;;;;;13.93;7.30;;;8.10;99.90;;;;;;5088213;28;20971;-72
2023/12/19 07:02:18;;;;;;;14.68;7.50;;;8.10;99.90;;;;;;5090355;28;20402;-72
2023/12/19 07:04:44;;;;;;;15.00;7.23;;;8.10;99.90;;;;;;5088502;28;20436;-73
2023/12/19 07:07:09;;;;;;;14.68;8.00;;;8.20;99.90;;;;;;5090547;28;20409;-73
2023/12/19 07:09:37;;;;;;;16.90;7.93;;;8.10;99.90;;;;;;5088208;28;20788;-72
2023/12/19 07:12:03;;;;;;;17.05;7.82;;;8.20;99.90;;;;;;5088034;28;20452;-73
2023/12/19 07:14:29;;;;;;;18.10;8.82;;;8.10;99.90;;;;;;5086384;28;20495;-74
2023/12/19 07:16:54;;;;;;;17.15;7.60;;;8.20;99.90;;;;;;5089248;28;20484;-74
2023/12/19 07:19:21;;;;;;;16.42;7.75;;;8.20;99.90;;;;;;5071183;28;20434;-74
2023/12/19 07:21:48;;;;;;;17.08;8.50;;;8.20;99.90;;;;;;5089780;28;20916;-74
2023/12/19 07:24:14;;;;;;;15.23;7.82;;;8.20;99.90;;;;;;5088432;28;20459;-73
2023/12/19 07:26:40;;;;;;;17.27;8.25;;;8.20;99.90;;;;;;5088132;28;20413;-74
2023/12/19 07:29:08;;;;;;;16.98;7.70;;;8.20;99.90;;;;;;5089318;28;20405;-74
2023/12/19 07:31:34;;;;;;;16.13;8.00;;;8.20;99.90;;;;;;5089145;28;20409;-74
2023/12/19 07:34:04;;;;;;;19.58;8.75;;;8.20;99.90;;;;;;5089408;28;20437;-74
2023/12/19 07:36:30;;;;;;;15.40;7.65;;;8.20;99.90;;;;;;5088448;28;20412;-74
2023/12/19 07:38:56;;;;;;;15.25;8.10;;;8.20;99.90;;;;;;5089898;28;20760;-74
2023/12/19 07:41:23;;;;;;;16.20;8.32;;;8.20;99.90;;;;;;5087895;28;20406;-73
2023/12/19 07:43:49;;;;;;;16.45;8.52;;;8.20;99.90;;;;;;5086842;28;21370;-73
2023/12/19 07:46:15;;;;;;;17.25;8.50;;;8.20;99.90;;;;;;5089459;28;20768;-74
2023/12/19 07:48:41;;;;;;;15.65;8.10;;;8.20;99.90;;;;;;5088910;28;20398;-74
2023/12/19 07:51:08;;;;;;;20.48;8.73;;;8.20;99.90;;;;;;5089106;28;20428;-74
2023/12/19 07:53:34;;;;;;;18.00;8.87;;;8.20;99.90;;;;;;5092127;28;20489;-74
2023/12/19 07:56:04;;;;;;;15.05;7.85;;;8.20;99.90;;;;;;5076916;28;20438;-74
2023/12/19 07:58:30;;;;;;;18.58;8.05;;;8.20;99.90;;;;;;5089383;28;20501;-74
2023/12/19 08:00:56;;;;;;;15.57;7.38;;;8.20;99.90;;;;;;5090337;28;20485;-74
2023/12/19 08:03:27;;;;;;;15.60;7.32;;;8.20;99.90;;;;;;5091658;28;20499;-74
2023/12/19 08:05:54;;;;;;;15.20;7.50;;;8.30;99.90;;;;;;5090343;28;20900;-74
2023/12/19 08:08:20;;;;;;;12.90;6.47;;;8.30;99.90;;;;;;5091729;28;20426;-74
2023/12/19 08:10:46;;;;;;;12.23;5.93;;;8.30;99.90;;;;;;5089267;28;20699;-74
2023/12/19 08:13:13;;;;;;;12.38;6.38;;;8.30;99.90;;;;;;5091775;28;20472;-74
2023/12/19 08:15:40;;;;;;;11.90;6.20;;;8.30;99.90;;;;;;5088022;28;20417;-74
2023/12/19 08:18:07;;;;;;;11.07;5.95;;;8.30;99.90;;;;;;5088180;28;20489;-73
2023/12/19 08:20:33;;;;;;;9.23;5.07;;;8.40;99.90;;;;;;5086525;28;20502;-74
2023/12/19 08:22:59;;;;;;;10.88;5.70;;;8.40;99.90;;;;;;5087565;28;20411;-74
2023/12/19 08:25:25;;;;;;;8.85;5.20;;;8.40;99.90;;;;;;5087813;28;20441;-74
2023/12/19 08:27:50;;;;;;;12.00;6.00;;;8.40;99.90;;;;;;5087426;28;20448;-74
2023/12/19 08:30:16;;;;;;;8.80;5.35;;;8.40;99.90;;;;;;5088546;28;20410;-74
2023/12/19 08:32:42;;;;;;;10.63;5.40;;;8.40;99.90;;;;;;5087463;28;20822;-74
2023/12/19 08:35:07;;;;;;;9.67;5.70;;;8.40;99.90;;;;;;5088529;28;20413;-74
2023/12/19 08:37:33;;;;;;;10.18;5.38;;;8.40;99.90;;;;;;5086647;28;20500;-74
2023/12/19 08:40:02;;;;;;;10.37;6.27;;;8.40;99.90;;;;;;5087379;28;20431;-74
2023/12/19 08:42:28;;;;;;;10.93;6.13;;;8.40;99.90;;;;;;5087978;28;20408;-74
2023/12/19 08:44:55;;;;;;;10.77;6.20;;;8.40;99.90;;;;;;5088211;28;20405;-73
2023/12/19 08:47:22;;;;;;;11.27;6.35;;;8.40;99.90;;;;;;5091082;28;20932;-74
2023/12/19 08:49:48;;;;;;;11.90;6.80;;;8.40;99.90;;;;;;5087919;28;20405;-74
2023/12/19 08:52:14;;;;;;;11.77;6.60;;;8.50;99.90;;;;;;5089110;28;20420;-74
2023/12/19 08:54:40;;;;;;;12.38;6.72;;;8.50;99.90;;;;;;5088468;28;20838;-74
2023/12/19 08:57:05;;;;;;;12.35;6.60;;;8.50;99.90;;;;;;5090539;28;20404;-74
2023/12/19 08:59:31;;;;;;;11.75;6.63;;;8.50;99.90;;;;;;5088292;28;20536;-74
2023/12/19 09:01:57;;;;;;;12.97;7.27;;;8.50;99.90;;;;;;5088567;28;20408;-74
2023/12/19 09:04:22;;;;;;;12.88;6.78;;;8.50;99.90;;;;;;5087637;28;20410;-74
2023/12/19 09:06:48;;;;;;;14.20;7.47;;;8.50;99.90;;;;;;5089219;28;20396;-74
2023/12/19 09:09:15;;;;;;;13.10;7.47;;;8.50;99.90;;;;;;5088602;28;20398;-74
2023/12/19 09:11:41;;;;;;;16.08;8.00;;;8.50;99.90;;;;;;5089387;28;20495;-74
2023/12/19 09:14:06;;;;;;;13.20;7.15;;;8.50;99.90;;;;;;5087902;28;20510;-74
2023/12/19 09:16:32;;;;;;;12.98;7.20;;;8.50;99.90;;;;;;5087689;28;20412;-74
2023/12/19 09:18:59;;;;;;;13.07;7.50;;;8.50;99.90;;;;;;5088178;28;20413;-74
2023/12/19 09:21:26;;;;;;;13.15;7.90;;;8.50;99.90;;;;;;5088135;28;20464;-74
2023/12/19 09:23:52;;;;;;;14.82;8.07;;;8.60;99.90;;;;;;5088028;28;20922;-74
2023/12/19 09:26:17;;;;;;;15.10;7.88;;;8.50;99.90;;;;;;5086694;28;20406;-74
2023/12/19 09:28:43;;;;;;;15.67;8.20;;;8.60;99.90;;;;;;5086000;28;20983;-73
2023/12/19 09:31:09;;;;;;;16.03;8.37;;;8.60;99.90;;;;;;5091429;28;20412;-74
2023/12/19 09:33:38;;;;;;;17.25;8.88;;;8.60;99.90;;;;;;5072860;28;20931;-74
2023/12/19 09:36:07;;;;;;;16.03;8.73;;;8.60;99.90;;;;;;5106451;28;20977;-74
2023/12/19 09:38:33;;;;;;;16.08;9.07;;;8.60;99.90;;;;;;5100883;28;20406;-74
2023/12/19 09:40:59;;;;;;;14.10;8.50;;;8.70;99.90;;;;;;5090038;28;20421;-74
2023/12/19 09:43:24;;;;;;;15.63;8.77;;;8.70;99.90;;;;;;5091015;28;20405;-74
2023/12/19 09:45:50;;;;;;;19.42;9.10;;;8.70;99.90;;;;;;5091028;28;20484;-74
2023/12/19 09:48:18;;;;;;;18.25;9.23;;;8.70;99.90;;;;;;5091777;28;20462;-74
2023/12/19 09:50:48;;;;;;;18.60;9.80;;;8.70;99.90;;;;;;5090640;28;20406;-73
2023/12/19 09:53:16;;;;;;;18.60;10.20;;;8.70;99.90;;;;;;5074453;28;20434;-74
2023/12/19 09:55:44;;;;;;;20.67;10.70;;;8.70;99.90;;;;;;5092968;28;20402;-74
2023/12/19 09:58:14;;;;;;;21.55;11.13;;;8.70;99.90;;;;;;5091105;28;21120;-74
2023/12/19 10:00:44;;;;;;;22.98;10.88;;;8.80;99.90;;;;;;5089823;28;20489;-74
2023/12/19 10:03:10;;;;;;;22.35;11.27;;;8.80;99.90;;;;;;5091683;28;20464;-74
2023/12/19 10:05:36;;;;;;;23.35;11.77;;;8.80;99.90;;;;;;5091404;28;20409;-74
2023/12/19 10:08:02;;;;;;;24.87;11.37;;;8.80;99.90;;;;;;5090825;28;20818;-74
2023/12/19 10:10:49;;;;;;;25.30;11.48;;;8.80;99.90;;;;;;5093036;28;20488;-74
2023/12/19 10:13:28;;;;;;;21.55;11.15;;;8.90;99.90;;;;;;5093355;28;20628;-74
2023/12/19 10:16:06;;;;;;;23.20;11.43;;;8.90;99.90;;;;;;5092019;28;20417;-74
2023/12/19 10:18:33;;;;;;;25.27;11.32;;;8.90;99.90;;;;;;5090413;28;20928;-74
2023/12/19 10:21:08;;;;;;;21.20;11.05;;;8.90;99.90;;;;;;5091438;28;20856;-74
2023/12/19 10:23:34;;;;;;;23.25;11.43;;;8.90;99.90;;;;;;5091212;28;20406;-74
2023/12/19 10:26:00;;;;;;;22.08;11.52;;;8.90;99.90;;;;;;5090227;28;20502;-73
2023/12/19 10:28:26;;;;;;;25.37;11.10;;;9.00;99.90;;;;;;5105649;28;20876;-74
2023/12/19 10:31:24;;;;;;;25.00;11.53;;;9.00;99.90;;;;;;5089882;28;20437;-74
2023/12/19 10:33:51;;;;;;;25.10;11.63;;;9.00;99.90;;;;;;5045248;28;20450;-74
2023/12/19 10:36:28;;;;;;;22.60;11.15;;;9.10;99.90;;;;;;5091376;28;20954;-74
2023/12/19 10:38:55;;;;;;;23.52;11.50;;;9.10;99.90;;;;;;5092487;28;20951;-74
2023/12/19 10:41:23;;;;;;;19.67;10.13;;;9.10;99.90;;;;;;5087973;28;20946;-74
2023/12/19 10:43:50;;;;;;;17.58;9.73;;;9.10;99.90;;;;;;5090806;28;20912;-74
2023/12/19 10:46:18;;;;;;;16.27;9.47;;;9.10;99.90;;;;;;5090444;28;20899;-74
2023/12/19 10:48:45;;;;;;;22.60;10.43;;;9.10;99.90;;;;;;5092037;28;20421;-74
2023/12/19 10:51:14;;;;;;;18.17;10.02;;;9.20;99.90;;;;;;5079820;28;21209;-74
2023/12/19 10:53:48;;;;;;;21.70;10.50;;;9.20;99.90;;;;;;5090272;28;20433;-74
2023/12/19 10:56:21;;;;;;;20.15;10.48;;;9.20;99.90;;;;;;5089492;28;20488;-74
2023/12/19 10:58:50;;;;;;;19.52;10.07;;;9.20;99.90;;;;;;5090984;28;21304;-74
2023/12/19 11:01:19;;;;;;;20.40;10.05;;;9.20;99.90;;;;;;5089830;28;20466;-74
2023/12/19 11:03:53;;;;;;;17.02;8.95;;;9.20;99.90;;;;;;5089852;28;20953;-74
2023/12/19 11:06:22;;;;;;;17.30;9.60;;;9.20;99.90;;;;;;5088824;28;20500;-73
2023/12/19 11:08:51;;;;;;;19.33;9.68;;;9.20;99.90;;;;;;5088644;28;20429;-74
2023/12/19 11:11:37;;;;;;;17.95;9.52;;;9.20;99.90;;;;;;5088233;28;20485;-74
2023/12/19 11:14:05;;;;;;;18.90;9.43;;;9.20;99.90;;;;;;5079591;28;20457;-74
2023/12/19 11:16:41;;;;;;;18.75;9.68;;;9.20;99.90;;;;;;5087411;28;21017;-74
2023/12/19 11:19:19;;;;;;;18.02;9.50;;;9.30;99.90;;;;;;5071136;28;20425;-73
2023/12/19 11:22:00;;;;;;;19.90;10.13;;;9.30;99.90;;;;;;5088294;28;20414;-74
2023/12/19 11:24:41;;;;;;;23.00;10.47;;;9.30;99.90;;;;;;5088567;28;20481;-74
2023/12/19 11:27:21;;;;;;;22.23;10.25;;;9.30;99.90;;;;;;5098080;28;20412;-74
2023/12/19 11:29:53;;;;;;;19.95;9.55;;;9.30;99.90;;;;;;5089287;28;20883;-74
2023/12/19 11:32:28;;;;;;;19.27;9.93;;;9.40;99.90;;;;;;5087954;28;20452;-74
2023/12/19 11:35:14;;;;;;;17.77;9.93;;;9.40;99.90;;;;;;5087401;28;20435;-74
2023/12/19 11:37:43;;;;;;;21.27;9.95;;;9.40;99.90;;;;;;5087011;28;20451;-74
2023/12/19 11:40:18;;;;;;;20.30;10.03;;;9.40;99.90;;;;;;5088213;28;20506;-74
2023/12/19 11:42:44;;;;;;;22.98;10.48;;;9.40;99.90;;;;;;5089483;28;20918;-74
2023/12/19 11:45:19;;;;;;;23.40;9.93;;;9.40;99.90;;;;;;5088806;28;20892;-74
2023/12/19 11:47:45;;;;;;;19.80;10.20;;;9.40;99.90;;;;;;5088883;28;20410;-74
2023/12/19 11:50:11;;;;;;;21.88;10.38;;;9.40;99.90;;;;;;5090943;28;20406;-74
2023/12/19 11:52:37;;;;;;;24.17;11.23;;;9.40;99.90;;;;;;5090634;28;20433;-74
2023/12/19 11:55:06;;;;;;;23.38;10.13;;;9.40;99.90;;;;;;5090443;28;20410;-74
2023/12/19 11:57:33;;;;;;;23.73;10.63;;;9.40;99.90;;;;;;5088732;28;20456;-74
2023/12/19 12:00:00;;;;;;;20.67;9.95;;;9.50;99.90;;;;;;5088627;28;20470;-74
2023/12/19 12:02:36;;;;;;;22.15;10.40;;;9.50;99.90;;;;;;5088928;28;20421;-74
2023/12/19 12:05:15;;;;;;;24.55;10.82;;;9.50;99.90;;;;;;5089428;28;20953;-74
2023/12/19 12:07:42;;;;;;;22.98;11.00;;;9.50;99.90;;;;;;5086727;28;20975;-74
2023/12/19 12:10:09;;;;;;;23.40;10.68;;;9.50;99.90;;;;;;5089521;28;20410;-73
2023/12/19 12:12:36;;;;;;;22.52;10.75;;;9.50;99.90;;;;;;5089759;28;20514;-74
2023/12/19 12:15:06;;;;;;;23.10;10.83;;;9.50;99.90;;;;;;5089977;28;20941;-73
2023/12/19 12:17:34;;;;;;;21.40;10.48;;;9.50;99.90;;;;;;5088039;28;20417;-73
2023/12/19 12:20:00;;;;;;;24.55;10.90;;;9.50;99.90;;;;;;5089123;28;20406;-73
2023/12/19 12:22:26;;;;;;;21.60;10.80;;;9.50;99.90;;;;;;5087172;28;20535;-74
2023/12/19 12:24:54;;;;;;;24.90;11.00;;;9.50;99.90;;;;;;5086536;28;20429;-74
2023/12/19 12:27:20;;;;;;;19.95;10.25;;;9.50;99.90;;;;;;5097254;28;20410;-74
2023/12/19 12:29:46;;;;;;;22.83;10.70;;;9.50;99.90;;;;;;5105860;28;20909;-74
2023/12/19 12:32:12;;;;;;;22.45;10.65;;;9.50;99.90;;;;;;5105368;28;20415;-74
2023/12/19 12:34:38;;;;;;;21.55;10.45;;;9.50;99.90;;;;;;5100431;28;20428;-74
2023/12/19 12:37:04;;;;;;;21.80;10.80;;;9.50;99.90;;;;;;5098197;28;20404;-74
2023/12/19 12:39:31;;;;;;;18.75;9.82;;;9.50;99.90;;;;;;5103377;28;20761;-73